Time;durP1;ratioP1;P1;durP2;ratioP2;P2;SDS_P1;SDS_P2;PMS_P1;PMS_P2;Temp;Humidity;BMP_temperature;BMP_pressure;BME280_temperature;BME280_humidity;BME280_pressure;Samples;Min_cycle;Max_cycle;Signal;HPM_P1;HPM_P2
2022/01/11 00:01:27;;;;;;;32.20;21.40;;;;;;;1.90;81.38;97388.46;110016;1247;71514;-66
2022/01/11 00:03:56;;;;;;;27.60;18.70;;;;;;;1.91;81.39;97390.15;109976;1250;68115;-67
2022/01/11 00:06:39;;;;;;;25.10;16.40;;;;;;;1.91;81.29;97393.39;110047;1248;69410;-65
2022/01/11 00:09:20;;;;;;;19.80;11.80;;;;;;;1.91;81.25;97392.00;110070;1249;59761;-66
2022/01/11 00:11:50;;;;;;;32.70;21.70;;;;;;;1.92;80.87;97399.17;110033;1250;59750;-67
2022/01/11 00:14:20;;;;;;;33.10;21.00;;;;;;;1.91;81.05;97401.29;110031;1249;71562;-67
2022/01/11 00:16:49;;;;;;;29.40;20.70;;;;;;;1.91;81.32;97404.23;110063;1249;68549;-66
2022/01/11 00:19:18;;;;;;;31.40;21.20;;;;;;;1.90;81.48;97407.55;109996;1247;69495;-66
2022/01/11 00:21:49;;;;;;;36.20;24.60;;;;;;;1.90;81.57;97407.01;109988;1250;59750;-67
2022/01/11 00:24:33;;;;;;;52.70;31.60;;;;;;;1.90;81.78;97407.89;110018;1247;59671;-66
2022/01/11 00:27:07;;;;;;;35.80;22.60;;;;;;;1.87;82.61;97408.35;109934;1249;71540;-65
2022/01/11 00:29:44;;;;;;;32.20;20.10;;;;;;;1.85;81.98;97413.73;109700;1250;69147;-65
2022/01/11 00:32:28;;;;;;;32.40;21.30;;;;;;;1.86;81.75;97412.70;110146;1247;68612;-66
2022/01/11 00:34:58;;;;;;;30.70;20.10;;;;;;;1.87;81.78;97417.45;109911;1247;60103;-66
2022/01/11 00:37:28;;;;;;;;;;;;;;;1.88;81.77;97414.83;109918;1250;59761;-65
2022/01/11 00:40:00;;;;;;;24.60;16.90;;;;;;;1.89;81.91;97415.82;110058;1247;70795;-66
2022/01/11 00:42:29;;;;;;;26.40;18.20;;;;;;;1.90;81.72;97415.95;110186;1247;68568;-66
2022/01/11 00:44:59;;;;;;;30.50;21.10;;;;;;;1.91;81.44;97417.48;110044;1247;68484;-66
2022/01/11 00:47:28;;;;;;;27.50;19.40;;;;;;;1.91;81.42;97414.37;110045;1247;59747;-64
2022/01/11 00:49:58;;;;;;;29.80;20.70;;;;;;;1.91;81.65;97418.66;110152;1247;59805;-67
2022/01/11 00:52:28;;;;;;;27.30;18.60;;;;;;;1.91;81.56;97420.89;110007;1248;70886;-67
2022/01/11 00:54:58;;;;;;;43.90;25.60;;;;;;;1.91;81.43;97421.94;109911;1250;68647;-66
2022/01/11 00:57:27;;;;;;;32.20;22.60;;;;;;;1.92;81.43;97426.54;110053;1247;69552;-67
2022/01/11 00:59:58;;;;;;;47.80;30.90;;;;;;;1.91;81.72;97425.73;110057;1248;59757;-66
2022/01/11 01:02:27;;;;;;;62.00;35.70;;;;;;;1.90;81.90;97426.10;109933;1248;60129;-66
2022/01/11 01:04:57;;;;;;;46.00;28.60;;;;;;;1.88;81.81;97424.08;109901;1248;71518;-66
2022/01/11 01:07:27;;;;;;;35.60;25.10;;;;;;;1.87;81.67;97422.23;110080;1247;68511;-67
2022/01/11 01:10:03;;;;;;;38.60;25.70;;;;;;;1.87;81.66;97419.84;109925;1248;69498;-67
2022/01/11 01:12:36;;;;;;;32.80;21.80;;;;;;;1.88;81.65;97423.61;109774;1250;59724;-67
2022/01/11 01:15:06;;;;;;;;;;;;;;;1.88;81.71;97425.31;109963;1249;59738;-66
2022/01/11 01:17:37;;;;;;;26.20;18.90;;;;;;;1.88;81.91;97424.95;109777;1250;70966;-66
2022/01/11 01:20:07;;;;;;;34.40;22.60;;;;;;;1.89;81.74;97422.86;109944;1250;68690;-67
2022/01/11 01:22:36;;;;;;;35.00;23.60;;;;;;;1.88;81.60;97421.50;109936;1250;69387;-67
2022/01/11 01:25:07;;;;;;;31.10;21.00;;;;;;;1.89;81.70;97421.67;109759;1247;60137;-67
2022/01/11 01:27:37;;;;;;;33.60;22.00;;;;;;;1.89;81.63;97422.19;109918;1249;59639;-63
2022/01/11 01:30:07;;;;;;;32.00;21.70;;;;;;;1.89;81.66;97421.64;109931;1250;72139;-68
2022/01/11 01:32:37;;;;;;;28.50;19.40;;;;;;;1.90;81.54;97424.73;109995;1247;68586;-66
2022/01/11 01:35:07;;;;;;;27.80;15.80;;;;;;;1.91;81.38;97424.00;110006;1250;69445;-66
2022/01/11 01:37:37;;;;;;;27.60;20.10;;;;;;;1.90;81.18;97420.40;110019;1249;59725;-68
2022/01/11 01:40:08;;;;;;;31.40;23.30;;;;;;;1.91;81.23;97424.53;109982;1247;59718;-67
2022/01/11 01:42:38;;;;;;;30.80;19.40;;;;;;;1.91;81.29;97427.11;109679;1250;71608;-66
2022/01/11 01:45:08;;;;;;;;;;;;;;;1.91;81.37;97429.16;109775;1249;67994;-67
2022/01/11 01:47:38;;;;;;;55.10;30.60;;;;;;;1.89;81.90;97425.80;110046;1249;69496;-68
2022/01/11 01:50:10;;;;;;;55.80;32.60;;;;;;;1.85;82.52;97431.78;110069;1247;59672;-66
2022/01/11 01:52:39;;;;;;;37.80;23.80;;;;;;;1.83;82.15;97433.56;110111;1248;59666;-66
2022/01/11 01:55:09;;;;;;;;;;;;;;;1.83;81.79;97431.86;110101;1249;71010;-68
2022/01/11 01:57:38;;;;;;;32.50;21.60;;;;;;;1.82;81.82;97434.81;110085;1250;68619;-68
2022/01/11 02:00:12;;;;;;;38.30;24.90;;;;;;;1.83;81.84;97434.10;110013;1249;68242;-65
2022/01/11 02:02:41;;;;;;;30.40;20.30;;;;;;;1.84;81.92;97440.08;109970;1247;59749;-66
2022/01/11 02:05:11;;;;;;;31.60;21.40;;;;;;;1.84;81.56;97437.33;110169;1249;59672;-67
2022/01/11 02:07:41;;;;;;;36.90;23.20;;;;;;;1.83;81.52;97437.68;110028;1249;71630;-66
2022/01/11 02:10:11;;;;;;;33.10;21.70;;;;;;;1.83;81.74;97440.79;110010;1250;67995;-66
2022/01/11 02:12:42;;;;;;;45.30;28.20;;;;;;;1.83;82.06;97435.66;109898;1249;68553;-66
2022/01/11 02:15:12;;;;;;;42.20;27.20;;;;;;;1.82;82.55;97440.17;109769;1249;59808;-66
2022/01/11 02:17:45;;;;;;;32.10;23.80;;;;;;;1.79;82.44;97437.15;109865;1250;59682;-64
2022/01/11 02:20:15;;;;;;;29.40;18.30;;;;;;;1.78;82.15;97439.27;109900;1250;70860;-67
2022/01/11 02:22:45;;;;;;;51.30;32.30;;;;;;;1.77;82.11;97439.31;110011;1247;67783;-66
2022/01/11 02:25:15;;;;;;;;;;;;;;;1.68;83.72;97438.26;110260;1247;69383;-66
2022/01/11 02:27:45;;;;;;;52.40;30.10;;;;;;;1.60;83.84;97439.57;110058;1247;59747;-64
2022/01/11 02:30:15;;;;;;;54.20;31.40;;;;;;;1.53;84.19;97441.36;109921;1250;59699;-66
2022/01/11 02:32:52;;;;;;;46.80;30.60;;;;;;;1.49;84.76;97442.55;110061;1248;71597;-65
2022/01/11 02:35:23;;;;;;;52.50;31.30;;;;;;;1.45;84.92;97440.45;110178;1249;67670;-64
2022/01/11 02:37:53;;;;;;;44.00;28.20;;;;;;;1.43;84.97;97444.31;109832;1249;68555;-67
2022/01/11 02:40:23;;;;;;;32.40;20.50;;;;;;;1.43;84.35;97448.95;109875;1250;59813;-67
2022/01/11 02:42:53;;;;;;;;;;;;;;;1.45;83.62;97451.78;110080;1249;59666;-66
2022/01/11 02:45:23;;;;;;;34.70;21.30;;;;;;;1.47;83.59;97453.45;110051;1248;71514;-64
2022/01/11 02:47:52;;;;;;;34.80;20.80;;;;;;;1.49;83.37;97458.18;110026;1249;68715;-64
2022/01/11 02:50:24;;;;;;;27.10;15.90;;;;;;;1.51;83.20;97458.61;109732;1248;68586;-67
2022/01/11 02:52:54;;;;;;;46.00;28.70;;;;;;;1.53;83.51;97458.55;110030;1249;59772;-65
2022/01/11 02:55:25;;;;;;;39.70;26.80;;;;;;;1.52;84.02;97464.06;109942;1250;59734;-65
2022/01/11 02:57:56;;;;;;;52.40;31.80;;;;;;;1.53;83.87;97463.70;109735;1250;71517;-64
2022/01/11 03:00:28;;;;;;;40.50;23.70;;;;;;;1.53;84.04;97472.47;109766;1250;68654;-65
2022/01/11 03:03:25;;;;;;;46.90;28.20;;;;;;;1.55;84.12;97470.52;109807;1250;68611;-65
2022/01/11 03:05:57;;;;;;;32.80;21.30;;;;;;;1.56;83.79;97472.36;110195;1247;59701;-65
2022/01/11 03:08:36;;;;;;;42.60;26.80;;;;;;;1.57;83.66;97473.54;109869;1248;59627;-65
2022/01/11 03:11:10;;;;;;;;;;;;;;;1.55;83.58;97472.41;109972;1247;70779;-65
2022/01/11 03:13:43;;;;;;;50.70;31.10;;;;;;;1.50;83.92;97474.45;109993;1250;67685;-67
2022/01/11 03:16:15;;;;;;;48.40;29.90;;;;;;;1.47;84.06;97471.83;109992;1249;68482;-66
2022/01/11 03:18:46;;;;;;;46.90;27.30;;;;;;;1.44;84.10;97476.93;110187;1249;59687;-67
2022/01/11 03:21:16;;;;;;;31.30;20.90;;;;;;;1.43;83.97;97476.09;109974;1250;59753;-66
2022/01/11 03:23:46;;;;;;;31.90;18.80;;;;;;;1.44;83.68;97481.39;110205;1247;70803;-66
2022/01/11 03:26:16;;;;;;;25.50;15.20;;;;;;;1.45;83.66;97482.20;110000;1247;67718;-64
2022/01/11 03:28:46;;;;;;;33.00;20.60;;;;;;;1.47;83.28;97481.95;110023;1249;68490;-66
2022/01/11 03:31:19;;;;;;;32.00;18.50;;;;;;;1.49;82.96;97486.68;110019;1247;59674;-67
2022/01/11 03:33:50;;;;;;;26.40;16.20;;;;;;;1.50;82.87;97489.55;109921;1250;59669;-64
2022/01/11 03:36:20;;;;;;;32.10;20.60;;;;;;;1.52;82.66;97489.30;109887;1249;72744;-67
2022/01/11 03:38:50;;;;;;;;;;;;;;;1.53;82.57;97490.83;109929;1250;67863;-66
2022/01/11 03:41:20;;;;;;;27.60;17.40;;;;;;;1.55;82.72;97490.12;110162;1247;68459;-65
2022/01/11 03:43:51;;;;;;;;;;;;;;;1.56;82.65;97494.36;110079;1247;59732;-65
2022/01/11 03:46:23;;;;;;;38.10;24.20;;;;;;;1.56;82.81;97497.11;110077;1247;59652;-65
2022/01/11 03:48:53;;;;;;;38.40;25.70;;;;;;;1.54;82.96;97498.72;110025;1247;70710;-65
2022/01/11 03:51:23;;;;;;;53.80;31.50;;;;;;;1.52;83.66;97499.48;109872;1250;68634;-67
2022/01/11 03:54:04;;;;;;;41.50;26.60;;;;;;;1.44;84.16;97505.58;109753;1250;69496;-63
2022/01/11 03:56:36;;;;;;;47.00;27.40;;;;;;;1.41;84.18;97507.41;109886;1250;60101;-66
2022/01/11 03:59:11;;;;;;;56.80;32.30;;;;;;;1.39;84.69;97511.94;109926;1250;59634;-65
2022/01/11 04:01:41;;;;;;;50.90;30.80;;;;;;;1.36;84.49;97514.13;109872;1249;70584;-68
2022/01/11 04:04:11;;;;;;;32.70;19.60;;;;;;;1.34;84.67;97518.81;110040;1249;68435;-67
2022/01/11 04:06:41;;;;;;;36.30;21.20;;;;;;;1.34;83.70;97518.13;109963;1250;69579;-68
2022/01/11 04:09:12;;;;;;;32.00;20.70;;;;;;;1.35;83.42;97521.89;110237;1247;59727;-63
2022/01/11 04:11:42;;;;;;;31.60;20.00;;;;;;;1.35;83.46;97520.16;109837;1250;59670;-64
2022/01/11 04:14:11;;;;;;;47.70;27.10;;;;;;;1.34;83.80;97520.88;109840;1247;70338;-66
2022/01/11 04:16:42;;;;;;;42.40;26.30;;;;;;;1.31;84.47;97526.83;110013;1247;68372;-64
2022/01/11 04:19:13;;;;;;;40.10;23.90;;;;;;;1.26;84.35;97524.41;109816;1250;69706;-66
2022/01/11 04:21:43;;;;;;;53.40;29.10;;;;;;;1.24;84.08;97524.80;109859;1249;59699;-65
2022/01/11 04:24:13;;;;;;;46.20;28.40;;;;;;;1.23;84.16;97525.68;109942;1249;59732;-65
2022/01/11 04:26:48;;;;;;;43.00;25.50;;;;;;;1.22;84.16;97529.52;109955;1248;71640;-66
2022/01/11 04:29:18;;;;;;;46.70;27.10;;;;;;;1.22;83.97;97530.57;109675;1249;68408;-66
2022/01/11 04:31:48;;;;;;;42.60;27.60;;;;;;;1.21;84.07;97534.20;109963;1247;69451;-62
2022/01/11 04:34:20;;;;;;;42.60;24.80;;;;;;;1.21;84.40;97538.16;109760;1249;59697;-65
2022/01/11 04:36:50;;;;;;;40.00;24.30;;;;;;;1.21;84.42;97538.33;109724;1248;59670;-65
2022/01/11 04:39:23;;;;;;;36.30;20.30;;;;;;;1.19;84.02;97539.22;109849;1250;71526;-65
2022/01/11 04:41:53;;;;;;;30.00;18.50;;;;;;;1.20;83.84;97543.16;109847;1250;68550;-64
2022/01/11 04:44:23;;;;;;;28.00;17.90;;;;;;;1.22;83.69;97546.35;109888;1250;69793;-64
2022/01/11 04:46:54;;;;;;;27.60;17.10;;;;;;;1.25;83.45;97546.10;109747;1250;59734;-65
2022/01/11 04:49:23;;;;;;;43.80;26.40;;;;;;;1.27;83.32;97551.01;109821;1250;59616;-65
2022/01/11 04:51:55;;;;;;;31.90;19.90;;;;;;;1.27;83.44;97551.64;109625;1250;71549;-66
2022/01/11 04:54:24;;;;;;;;;;;;;;;1.31;83.29;97551.22;109752;1250;68612;-64
2022/01/11 04:56:54;;;;;;;23.00;16.30;;;;;;;1.34;83.29;97554.73;109825;1250;68695;-66
2022/01/11 04:59:24;;;;;;;19.70;11.50;;;;;;;1.37;83.19;97557.02;109823;1249;59747;-66
2022/01/11 05:01:54;;;;;;;30.20;17.20;;;;;;;1.39;82.86;97560.04;109736;1250;59626;-65
2022/01/11 05:04:24;;;;;;;31.10;21.10;;;;;;;1.40;82.69;97557.58;109933;1249;71525;-65
2022/01/11 05:06:55;;;;;;;35.80;22.30;;;;;;;1.41;83.01;97564.09;109929;1247;68585;-67
2022/01/11 05:09:26;;;;;;;45.30;27.70;;;;;;;1.40;83.53;97566.69;109731;1249;68894;-65
2022/01/11 05:11:55;;;;;;;39.50;25.30;;;;;;;1.39;83.87;97570.88;109634;1250;59682;-66
2022/01/11 05:14:24;;;;;;;30.60;19.20;;;;;;;1.38;83.82;97571.91;109767;1249;59733;-65
2022/01/11 05:16:54;;;;;;;46.10;28.60;;;;;;;1.38;83.86;97578.27;109969;1250;71716;-66
2022/01/11 05:19:24;;;;;;;47.80;29.80;;;;;;;1.35;84.61;97577.17;109866;1249;68031;-65
2022/01/11 05:21:53;;;;;;;44.80;26.90;;;;;;;1.31;85.09;97580.40;109707;1247;68916;-66
2022/01/11 05:24:22;;;;;;;48.30;28.70;;;;;;;1.32;84.81;97582.07;110058;1247;59741;-66
2022/01/11 05:26:54;;;;;;;29.00;17.10;;;;;;;1.33;84.63;97583.09;110024;1250;59735;-66
2022/01/11 05:29:24;;;;;;;43.50;27.10;;;;;;;1.35;84.30;97585.95;109994;1247;70263;-64
2022/01/11 05:31:54;;;;;;;31.60;20.00;;;;;;;1.35;84.43;97589.89;109958;1250;67866;-66
2022/01/11 05:34:24;;;;;;;24.70;18.30;;;;;;;1.36;84.18;97591.91;109881;1250;70054;-65
2022/01/11 05:36:53;;;;;;;21.60;13.90;;;;;;;1.38;83.90;97593.37;109810;1248;60121;-66
2022/01/11 05:39:23;;;;;;;25.70;14.60;;;;;;;1.40;83.71;97600.17;109737;1249;59687;-69
2022/01/11 05:41:53;;;;;;;22.10;16.60;;;;;;;1.42;83.56;97603.36;110291;1247;71543;-66
2022/01/11 05:44:22;;;;;;;26.20;16.30;;;;;;;1.44;83.46;97606.09;109925;1250;67920;-66
2022/01/11 05:46:52;;;;;;;44.40;26.00;;;;;;;1.46;83.34;97609.08;109957;1247;68686;-66
2022/01/11 05:49:21;;;;;;;32.10;19.60;;;;;;;1.47;83.76;97615.07;109879;1250;59699;-67
2022/01/11 05:51:51;;;;;;;31.50;20.90;;;;;;;1.47;83.84;97616.95;109939;1248;59742;-66
2022/01/11 05:54:20;;;;;;;33.00;22.30;;;;;;;1.48;83.67;97619.50;109938;1249;71557;-75
2022/01/11 05:56:50;;;;;;;32.50;20.50;;;;;;;1.49;83.70;97625.12;110005;1248;68579;-67
2022/01/11 05:59:19;;;;;;;33.90;20.40;;;;;;;1.51;83.60;97628.84;110219;1247;69953;-67
2022/01/11 06:01:48;;;;;;;28.50;17.10;;;;;;;1.53;83.63;97626.55;109877;1247;59702;-68
2022/01/11 06:04:18;;;;;;;45.90;27.10;;;;;;;1.55;83.72;97635.41;110311;1247;59670;-69
2022/01/11 06:06:47;;;;;;;33.10;19.50;;;;;;;1.56;84.18;97638.66;110092;1247;71917;-67
2022/01/11 06:09:17;;;;;;;27.60;18.60;;;;;;;1.57;83.83;97642.75;110272;1246;67664;-69
2022/01/11 06:11:46;;;;;;;31.10;20.30;;;;;;;1.58;83.72;97648.05;109977;1247;69502;-70
2022/01/11 06:14:20;;;;;;;28.70;19.60;;;;;;;1.57;83.97;97649.44;109991;1250;59679;-68
2022/01/11 06:16:50;;;;;;;32.90;21.80;;;;;;;1.56;83.89;97656.50;110211;1247;59792;-67
2022/01/11 06:19:19;;;;;;;39.10;24.20;;;;;;;1.56;84.02;97662.69;109916;1252;71556;-68
2022/01/11 06:21:58;;;;;;;41.40;26.20;;;;;;;1.57;84.09;97665.59;110177;1247;68629;-67
2022/01/11 06:24:27;;;;;;;;;;;;;;;1.56;84.55;97670.97;110019;1249;68908;-66
2022/01/11 06:26:56;;;;;;;39.60;23.60;;;;;;;1.55;84.28;97673.21;110036;1250;59736;-70
2022/01/11 06:29:26;;;;;;;29.70;17.30;;;;;;;1.53;84.41;97676.55;109925;1250;59622;-67
2022/01/11 06:31:55;;;;;;;35.70;23.30;;;;;;;1.52;84.49;97678.62;110174;1249;71497;-68
2022/01/11 06:34:25;;;;;;;32.30;18.70;;;;;;;1.52;83.98;97678.95;110005;1250;68632;-66
2022/01/11 06:36:54;;;;;;;59.00;32.70;;;;;;;1.52;84.30;97682.56;110096;1250;68816;-67
2022/01/11 06:39:24;;;;;;;55.80;30.50;;;;;;;1.49;84.86;97687.14;109988;1250;60134;-66
2022/01/11 06:41:54;;;;;;;52.80;33.00;;;;;;;1.49;84.36;97687.66;110008;1250;59762;-67
2022/01/11 06:44:23;;;;;;;56.80;34.10;;;;;;;1.48;84.90;97684.78;110104;1248;71900;-67
2022/01/11 06:46:52;;;;;;;51.50;30.20;;;;;;;1.47;84.96;97688.05;110140;1248;68684;-67
2022/01/11 06:49:21;;;;;;;52.80;30.10;;;;;;;1.47;84.55;97686.67;109937;1250;68651;-66
2022/01/11 06:51:51;;;;;;;62.00;35.80;;;;;;;1.49;84.39;97691.77;110152;1248;59759;-67
2022/01/11 06:54:20;;;;;;;57.80;35.00;;;;;;;1.48;85.13;97696.10;109954;1250;59702;-69
2022/01/11 06:56:50;;;;;;;53.30;32.90;;;;;;;1.49;85.12;97697.81;110127;1248;71949;-67
2022/01/11 06:59:19;;;;;;;48.60;29.90;;;;;;;1.49;85.03;97701.08;110015;1250;69486;-68
2022/01/11 07:01:48;;;;;;;58.90;34.70;;;;;;;1.50;84.81;97704.79;110070;1250;68840;-67
2022/01/11 07:04:38;;;;;;;52.10;31.70;;;;;;;1.52;85.61;97711.08;109865;1250;59758;-65
2022/01/11 07:07:08;;;;;;;67.20;38.00;;;;;;;1.52;85.54;97711.59;110139;1247;59693;-68
2022/01/11 07:09:37;;;;;;;58.60;32.70;;;;;;;1.52;85.73;97711.27;110108;1250;72195;-66
2022/01/11 07:12:07;;;;;;;65.00;37.80;;;;;;;1.55;85.33;97714.09;110106;1249;67957;-64
2022/01/11 07:14:37;;;;;;;56.10;34.10;;;;;;;1.54;85.71;97717.20;109905;1250;69944;-66
2022/01/11 07:17:06;;;;;;;63.40;35.40;;;;;;;1.52;85.93;97722.77;109899;1250;59687;-66
2022/01/11 07:19:37;;;;;;;43.10;26.30;;;;;;;1.52;85.78;97728.09;110157;1247;59697;-68
2022/01/11 07:22:11;;;;;;;49.60;30.50;;;;;;;1.56;85.33;97731.76;110116;1247;70874;-65
2022/01/11 07:24:40;;;;;;;36.50;20.90;;;;;;;1.61;85.23;97735.39;109944;1248;67930;-64
2022/01/11 07:27:10;;;;;;;40.80;25.60;;;;;;;1.67;84.59;97740.18;109996;1249;69546;-69
2022/01/11 07:29:39;;;;;;;39.90;24.80;;;;;;;1.70;84.47;97747.61;110090;1249;59723;-65
2022/01/11 07:32:08;;;;;;;38.80;25.60;;;;;;;1.74;84.57;97745.97;109701;1250;59614;-67
2022/01/11 07:34:38;;;;;;;32.80;20.00;;;;;;;1.77;84.38;97744.85;109986;1249;70879;-67
2022/01/11 07:37:07;;;;;;;30.70;18.50;;;;;;;1.80;84.07;97748.35;110204;1248;67873;-66
2022/01/11 07:39:37;;;;;;;32.50;19.10;;;;;;;1.83;83.99;97747.74;109972;1249;68824;-66
2022/01/11 07:42:08;;;;;;;27.20;16.20;;;;;;;1.84;84.03;97750.09;110151;1247;59669;-66
2022/01/11 07:45:03;;;;;;;43.80;28.50;;;;;;;1.89;83.76;97752.17;109993;1250;60077;-69
2022/01/11 07:47:32;;;;;;;48.10;30.10;;;;;;;1.91;83.96;97758.83;109946;1247;72163;-65
2022/01/11 07:50:04;;;;;;;34.40;24.90;;;;;;;1.92;84.20;97765.98;110057;1250;68996;-66
2022/01/11 07:52:33;;;;;;;28.70;17.20;;;;;;;1.95;84.00;97768.33;109920;1249;69471;-66
2022/01/11 07:55:04;;;;;;;31.20;20.00;;;;;;;1.98;83.83;97768.20;109973;1249;59751;-69
2022/01/11 07:57:33;;;;;;;30.80;19.30;;;;;;;2.00;83.55;97769.69;110024;1248;59660;-66
2022/01/11 08:00:05;;;;;;;33.30;22.30;;;;;;;2.01;83.32;97777.38;109759;1250;71517;-68
2022/01/11 08:02:43;;;;;;;36.70;22.70;;;;;;;2.02;83.25;97777.36;110123;1250;68584;-68
2022/01/11 08:05:23;;;;;;;49.40;30.90;;;;;;;2.02;82.93;97783.21;110099;1248;69439;-67
2022/01/11 08:07:53;;;;;;;36.30;21.60;;;;;;;1.98;82.58;97786.23;110112;1247;59673;-65
2022/01/11 08:10:26;;;;;;;45.40;29.20;;;;;;;1.96;82.44;97787.55;110080;1249;59761;-68
2022/01/11 08:12:57;;;;;;;42.10;27.50;;;;;;;1.92;81.71;97791.79;109963;1249;70497;-67
2022/01/11 08:15:26;;;;;;;35.30;22.80;;;;;;;1.89;81.85;97788.28;109948;1250;68986;-69
2022/01/11 08:17:58;;;;;;;54.50;32.60;;;;;;;1.88;81.97;97789.33;109962;1250;69252;-67
2022/01/11 08:20:29;;;;;;;45.60;28.60;;;;;;;1.85;81.81;97794.77;109993;1250;59683;-66
2022/01/11 08:22:58;;;;;;;46.00;30.00;;;;;;;1.82;81.72;97795.39;110090;1247;59732;-65
2022/01/11 08:25:29;;;;;;;37.10;22.80;;;;;;;1.85;81.72;97799.06;109980;1250;71584;-69
2022/01/11 08:27:59;;;;;;;40.90;25.90;;;;;;;1.90;81.79;97799.23;109984;1250;67836;-68
2022/01/11 08:30:29;;;;;;;34.10;21.10;;;;;;;1.93;81.09;97806.19;110184;1246;69970;-69
2022/01/11 08:33:01;;;;;;;41.10;24.70;;;;;;;1.96;81.32;97807.30;110176;1248;59763;-65
2022/01/11 08:35:33;;;;;;;42.90;25.60;;;;;;;1.95;80.92;97805.11;109948;1250;59606;-66
2022/01/11 08:38:06;;;;;;;36.20;23.60;;;;;;;1.97;80.79;97804.32;109857;1250;72049;-66
2022/01/11 08:40:35;;;;;;;28.00;18.60;;;;;;;2.02;79.94;97802.79;109827;1250;68468;-68
2022/01/11 08:43:05;;;;;;;29.00;16.10;;;;;;;2.10;79.63;97805.15;109932;1249;68755;-67
2022/01/11 08:45:37;;;;;;;25.00;16.70;;;;;;;2.17;79.40;97803.88;110102;1249;59684;-67
2022/01/11 08:48:09;;;;;;;28.00;17.20;;;;;;;2.23;78.68;97802.98;110125;1249;59657;-67
2022/01/11 08:50:43;;;;;;;22.50;14.60;;;;;;;2.30;78.18;97804.13;110143;1249;71377;-67
2022/01/11 08:53:13;;;;;;;31.10;19.90;;;;;;;2.38;77.96;97804.02;109725;1250;68563;-67
2022/01/11 08:55:42;;;;;;;22.40;14.90;;;;;;;2.47;78.09;97804.08;109992;1250;70094;-67
2022/01/11 08:58:12;;;;;;;20.60;13.60;;;;;;;2.55;77.92;97802.74;109908;1250;59744;-66
2022/01/11 09:00:42;;;;;;;31.70;17.80;;;;;;;2.65;77.34;97806.38;110000;1250;59689;-67
2022/01/11 09:03:13;;;;;;;31.20;21.80;;;;;;;2.72;77.33;97804.92;109929;1250;70669;-69
2022/01/11 09:05:45;;;;;;;25.40;16.40;;;;;;;2.77;75.85;97809.73;110002;1250;67121;-67
2022/01/11 09:08:14;;;;;;;24.20;15.50;;;;;;;2.84;77.04;97808.62;109902;1250;69372;-67
2022/01/11 09:10:43;;;;;;;33.60;20.70;;;;;;;2.90;75.20;97808.94;110109;1248;59731;-66
2022/01/11 09:13:13;;;;;;;28.10;18.70;;;;;;;2.91;73.93;97811.14;109853;1249;243550;-66
2022/01/11 09:15:42;;;;;;;24.50;16.60;;;;;;;2.90;73.04;97810.30;110068;1247;72245;-66
2022/01/11 09:18:12;;;;;;;22.10;15.10;;;;;;;2.88;73.84;97808.50;110135;1249;68551;-66
2022/01/11 09:20:42;;;;;;;24.90;17.30;;;;;;;2.89;74.34;97808.61;109982;1250;69424;-68
2022/01/11 09:23:14;;;;;;;31.40;18.00;;;;;;;2.84;73.39;97806.05;109899;1250;59772;-68
2022/01/11 09:25:45;;;;;;;27.50;17.00;;;;;;;2.74;72.30;97807.59;110072;1250;59714;-66
2022/01/11 09:28:16;;;;;;;19.20;11.80;;;;;;;2.73;73.51;97805.58;110120;1247;71426;-67
2022/01/11 09:30:46;;;;;;;21.90;13.70;;;;;;;2.80;73.42;97804.48;110050;1248;69684;-66
2022/01/11 09:33:16;;;;;;;22.20;14.10;;;;;;;2.78;74.13;97805.92;110021;1247;70316;-67
2022/01/11 09:35:46;;;;;;;21.70;14.10;;;;;;;2.73;75.27;97802.15;109860;1250;59713;-66
2022/01/11 09:38:22;;;;;;;23.20;14.50;;;;;;;2.67;74.84;97805.63;110126;1250;59738;-67
2022/01/11 09:40:54;;;;;;;18.70;12.10;;;;;;;2.64;74.10;97806.24;109981;1250;72078;-67
2022/01/11 09:43:26;;;;;;;54.40;26.10;;;;;;;2.69;74.37;97802.09;110112;1250;67845;-67
2022/01/11 09:45:58;;;;;;;39.00;19.20;;;;;;;2.68;73.93;97806.11;110112;1250;69334;-67
2022/01/11 09:48:35;;;;;;;25.00;13.30;;;;;;;2.71;73.37;97806.30;110103;1250;59757;-66
2022/01/11 09:51:05;;;;;;;32.80;17.10;;;;;;;2.76;72.69;97809.74;110019;1249;59728;-66
2022/01/11 09:53:34;;;;;;;21.10;12.90;;;;;;;2.84;73.86;97810.70;110078;1250;71863;-67
2022/01/11 09:56:08;;;;;;;21.20;11.50;;;;;;;2.94;73.56;97813.25;110128;1249;68739;-68
2022/01/11 09:58:40;;;;;;;18.50;10.90;;;;;;;3.03;73.44;97812.08;109763;1252;70041;-67
2022/01/11 10:01:12;;;;;;;18.20;11.30;;;;;;;3.06;69.65;97809.22;110051;1250;59753;-67
2022/01/11 10:04:10;;;;;;;41.00;21.60;;;;;;;3.05;70.46;97812.33;109945;1249;59680;-66
2022/01/11 10:07:07;;;;;;;42.20;18.60;;;;;;;3.09;71.78;97817.20;109831;1250;71588;-69
2022/01/11 10:10:04;;;;;;;56.90;27.00;;;;;;;3.16;71.24;97812.48;109947;1250;68593;-68
2022/01/11 10:12:47;;;;;;;31.00;14.20;;;;;;;3.19;69.75;97813.05;109819;1250;68677;-67
2022/01/11 10:15:27;;;;;;;21.70;12.10;;;;;;;3.20;70.33;97814.41;110107;1250;59749;-69
2022/01/11 10:18:06;;;;;;;28.00;16.30;;;;;;;3.23;69.54;97815.81;109996;1250;59633;-67
2022/01/11 10:20:36;;;;;;;19.60;11.60;;;;;;;3.19;67.62;97814.59;109985;1250;71517;-69
2022/01/11 10:23:13;;;;;;;13.80;9.10;;;;;;;3.19;69.84;97814.92;110016;1250;69102;-70
2022/01/11 10:25:52;;;;;;;15.00;8.00;;;;;;;3.20;65.82;97816.63;109977;1250;68745;-71
2022/01/11 10:28:35;;;;;;;10.40;6.80;;;;;;;3.23;68.30;97820.81;109952;1250;59674;-68
2022/01/11 10:31:05;;;;;;;14.00;10.00;;;;;;;3.29;68.04;97822.48;110013;1250;59627;-67
2022/01/11 10:33:58;;;;;;;14.30;8.30;;;;;;;3.28;62.70;97821.66;109939;1250;70807;-66
2022/01/11 10:36:44;;;;;;;13.50;8.20;;;;;;;3.26;62.83;97821.74;109738;1252;69175;-66
2022/01/11 10:39:32;;;;;;;11.60;7.30;;;;;;;3.33;65.63;97821.31;109749;1250;69251;-67
2022/01/11 10:42:06;;;;;;;11.60;7.10;;;;;;;3.42;65.10;97826.50;109778;1252;59729;-67
2022/01/11 10:44:41;;;;;;;14.70;9.10;;;;;;;3.50;66.50;97827.39;110019;1250;59662;-66
2022/01/11 10:47:17;;;;;;;9.80;6.90;;;;;;;3.53;63.66;97826.58;109929;1250;71621;-65
2022/01/11 10:49:49;;;;;;;14.60;10.00;;;;;;;3.59;65.88;97828.79;109861;1250;69148;-67
2022/01/11 10:52:19;;;;;;;12.10;6.80;;;;;;;3.61;64.02;97829.05;109790;1252;70129;-66
2022/01/11 10:54:54;;;;;;;12.40;8.20;;;;;;;3.65;66.35;97830.27;109998;1249;59742;-67
2022/01/11 10:57:32;;;;;;;10.10;6.20;;;;;;;3.73;67.08;97831.33;109865;1250;59697;-66
2022/01/11 11:00:17;;;;;;;10.70;7.20;;;;;;;3.85;67.38;97830.53;109930;1250;71526;-65
2022/01/11 11:02:52;;;;;;;10.50;7.10;;;;;;;3.99;67.34;97829.61;109904;1249;68412;-65
2022/01/11 11:05:25;;;;;;;11.90;7.30;;;;;;;4.13;66.92;97826.81;109762;1250;70053;-65
2022/01/11 11:08:08;;;;;;;9.90;5.60;;;;;;;4.29;66.14;97823.94;109858;1250;59736;-65
2022/01/11 11:10:44;;;;;;;10.70;7.40;;;;;;;4.45;63.29;97828.44;109966;1250;59700;-67
2022/01/11 11:13:28;;;;;;;11.70;6.60;;;;;;;4.59;64.67;97824.42;109905;1250;72463;-66
2022/01/11 11:16:16;;;;;;;10.30;6.50;;;;;;;4.74;65.25;97819.27;110049;1250;68449;-65
2022/01/11 11:18:49;;;;;;;9.60;6.40;;;;;;;4.92;65.33;97818.52;109989;1250;69253;-67
2022/01/11 11:21:27;;;;;;;10.20;6.80;;;;;;;5.05;62.89;97818.98;109982;1249;60116;-66
2022/01/11 11:23:58;;;;;;;10.20;7.00;;;;;;;5.14;61.34;97817.02;110152;1248;59628;-67
2022/01/11 11:26:36;;;;;;;13.60;8.60;;;;;;;5.22;60.22;97815.10;110066;1250;71382;-69
2022/01/11 11:29:06;;;;;;;12.80;8.20;;;;;;;5.12;56.58;97815.06;110144;1248;68175;-66
2022/01/11 11:31:55;;;;;;;;;;;;;;;5.14;57.75;97817.91;109927;1250;69357;-66
2022/01/11 11:34:30;;;;;;;12.10;7.70;;;;;;;5.10;56.61;97819.09;110138;1250;59683;-67
2022/01/11 11:37:05;;;;;;;12.40;7.90;;;;;;;5.13;56.80;97825.04;110112;1250;59751;-66
2022/01/11 11:39:35;;;;;;;13.40;8.80;;;;;;;5.05;55.42;97825.71;109953;1250;71953;-66
2022/01/11 11:42:05;;;;;;;12.60;7.80;;;;;;;4.90;54.94;97826.02;110171;1249;67177;-67
2022/01/11 11:44:40;;;;;;;12.60;8.10;;;;;;;4.80;55.33;97828.35;110107;1249;69547;-67